createdAt,value
2022-08-03T16:00:03.743Z,36.73
2022-08-03T16:01:03.685Z,37.19
2022-08-03T16:02:03.689Z,37.67
2022-08-03T16:03:03.740Z,37.92
2022-08-03T16:04:03.660Z,37.61
2022-08-03T16:05:03.642Z,37.16
2022-08-03T16:06:04.398Z,36.82
2022-08-03T16:07:03.648Z,36.61
2022-08-03T16:08:03.633Z,36.73
2022-08-03T16:09:03.616Z,36.65
2022-08-03T16:10:03.596Z,36.8
2022-08-03T16:11:03.580Z,37.21
2022-08-03T16:12:03.594Z,37.67
2022-08-03T16:13:03.576Z,-40
2022-08-03T16:14:03.564Z,-40
2022-08-03T16:15:03.600Z,-40
2022-08-03T16:16:03.536Z,-40
2022-08-03T16:17:03.527Z,-40
2022-08-03T16:18:03.576Z,-40
2022-08-03T16:19:03.519Z,-40
2022-08-03T16:20:03.487Z,-40
2022-08-03T16:21:04.354Z,-40
2022-08-03T16:22:03.551Z,-40
2022-08-03T16:23:03.498Z,-40
2022-08-03T16:24:03.473Z,-40
2022-08-03T16:25:03.466Z,-40
2022-08-03T16:26:03.501Z,-40
2022-08-03T16:27:03.427Z,-40
2022-08-03T16:28:03.489Z,-40
2022-08-03T16:29:03.393Z,-40
2022-08-03T16:30:03.384Z,-40
2022-08-03T16:31:03.377Z,-40
2022-08-03T16:32:03.362Z,-40
2022-08-03T16:33:03.370Z,-40
2022-08-03T16:34:03.350Z,-40
2022-08-03T16:35:03.332Z,-40
2022-08-03T16:36:03.351Z,-40
2022-08-03T16:37:03.323Z,-40
2022-08-03T16:38:03.304Z,-40
2022-08-03T16:39:03.314Z,-40
2022-08-03T16:40:03.284Z,-40
2022-08-03T16:41:03.280Z,-40
2022-08-03T16:42:03.265Z,-40
2022-08-03T16:43:03.257Z,-40
2022-08-03T16:44:03.240Z,-40
2022-08-03T16:45:03.228Z,-40
2022-08-03T16:46:03.214Z,-40
2022-08-03T16:47:03.212Z,-40
2022-08-03T16:48:03.198Z,-40
2022-08-03T16:49:03.209Z,-40
2022-08-03T16:50:03.190Z,-40
2022-08-03T16:51:03.169Z,-40
2022-08-03T16:52:03.155Z,-40
2022-08-03T16:53:03.147Z,-40
2022-08-03T16:54:03.139Z,-40
2022-08-03T16:55:03.147Z,-40
2022-08-03T16:56:03.118Z,-40
2022-08-03T16:57:03.158Z,-40
2022-08-03T16:58:03.107Z,-40
2022-08-03T16:59:03.108Z,-40
2022-08-03T17:00:03.079Z,-40
2022-08-03T17:01:03.089Z,-40
2022-08-03T17:02:03.058Z,-40
2022-08-03T17:03:03.050Z,-40
2022-08-03T17:04:03.044Z,-40
2022-08-03T17:05:03.132Z,-40
2022-08-03T17:06:04.057Z,-40
2022-08-03T17:07:03.017Z,-40
2022-08-03T17:08:03.004Z,-40
2022-08-03T17:09:03.000Z,-40
2022-08-03T17:10:02.980Z,-40
2022-08-03T17:11:02.973Z,-40
2022-08-03T17:12:02.961Z,-40
2022-08-03T17:13:02.966Z,-40
2022-08-03T17:14:02.933Z,-40
2022-08-03T17:15:02.928Z,-40
2022-08-03T17:16:02.945Z,-40
2022-08-03T17:17:02.902Z,-40
2022-08-03T17:18:02.898Z,-40
2022-08-03T17:19:02.882Z,-40
2022-08-03T17:20:02.873Z,-40
2022-08-03T17:21:02.919Z,-40
2022-08-03T17:22:02.893Z,-40
2022-08-03T17:23:02.840Z,-40
2022-08-03T17:24:02.841Z,-40
2022-08-03T17:25:02.826Z,-40
2022-08-03T17:26:02.813Z,-40
2022-08-03T17:27:02.819Z,-40
2022-08-03T17:28:02.800Z,-40
2022-08-03T17:29:02.789Z,-40
2022-08-03T17:30:02.821Z,-40
2022-08-03T17:31:02.819Z,-40
2022-08-03T17:32:02.764Z,-40
2022-08-03T17:33:02.759Z,-40
2022-08-03T17:34:02.736Z,-40
2022-08-03T17:35:02.773Z,-40
2022-08-03T17:36:02.726Z,-40
2022-08-03T17:37:02.701Z,-40
2022-08-03T17:38:02.695Z,-40
2022-08-03T17:39:02.777Z,-40
2022-08-03T17:40:02.671Z,-40
2022-08-03T17:41:02.658Z,-40
2022-08-03T17:42:02.656Z,-40
2022-08-03T17:43:02.636Z,-40
2022-08-03T17:44:02.629Z,-40
2022-08-03T17:45:02.636Z,-40
2022-08-03T17:46:02.613Z,-40
2022-08-03T17:47:02.597Z,-40
2022-08-03T17:48:02.635Z,-40
2022-08-03T17:49:02.571Z,-40
2022-08-03T17:50:02.579Z,-40
2022-08-03T17:51:02.556Z,-40
2022-08-03T17:52:02.544Z,-40
2022-08-03T17:53:02.538Z,-40
2022-08-03T17:54:02.540Z,-40
2022-08-03T17:55:02.512Z,-40
2022-08-03T17:56:02.504Z,-40
2022-08-03T17:57:02.495Z,-40
2022-08-03T17:58:02.482Z,-40
2022-08-03T17:59:02.476Z,-40
2022-08-03T18:00:02.515Z,-40
2022-08-03T18:01:02.497Z,-40
2022-08-03T18:02:02.450Z,-40
2022-08-03T18:03:02.442Z,-40
2022-08-03T18:04:02.422Z,-40
2022-08-03T18:05:02.434Z,-40
2022-08-03T18:06:02.398Z,-40
2022-08-03T18:07:02.389Z,-40
2022-08-03T18:08:02.396Z,-40
2022-08-03T18:09:02.368Z,-40
2022-08-03T18:10:02.358Z,-40
2022-08-03T18:11:02.369Z,-40
2022-08-03T18:12:02.338Z,-40
2022-08-03T18:13:02.358Z,-40
2022-08-03T18:14:02.324Z,-40
2022-08-03T18:15:02.313Z,-40
2022-08-03T18:16:02.292Z,-40
2022-08-03T18:17:02.302Z,-40
2022-08-03T18:18:02.305Z,-40
2022-08-03T18:19:02.277Z,-40
2022-08-03T18:20:02.341Z,-40
2022-08-03T18:21:02.280Z,-40
2022-08-03T18:22:02.241Z,-40
2022-08-03T18:23:02.236Z,-40
2022-08-03T18:24:02.252Z,-40
2022-08-03T18:25:02.202Z,-40
2022-08-03T18:26:02.215Z,-40
2022-08-03T18:27:02.180Z,-40
2022-08-03T18:28:02.204Z,-40
2022-08-03T18:29:02.169Z,-40
2022-08-03T18:30:02.151Z,-40
2022-08-03T18:31:02.165Z,-40
2022-08-03T18:32:02.140Z,-40
2022-08-03T18:33:02.122Z,-40
2022-08-03T18:34:02.116Z,-40
2022-08-03T18:35:02.095Z,-40
2022-08-03T18:36:02.102Z,-40
2022-08-03T18:37:02.081Z,-40
2022-08-03T18:38:02.065Z,-40
2022-08-03T18:39:02.062Z,-40
2022-08-03T18:40:02.053Z,-40
2022-08-03T18:41:02.077Z,-40
2022-08-03T18:42:02.055Z,-40
2022-08-03T18:43:02.216Z,-40
2022-08-03T18:44:02.008Z,-40
2022-08-03T18:45:02.010Z,-40
2022-08-03T18:46:01.992Z,-40
2022-08-03T18:47:01.976Z,-40
2022-08-03T18:48:01.968Z,-40
2022-08-03T18:49:01.956Z,-40
2022-08-03T18:50:01.957Z,-40
2022-08-03T18:51:01.945Z,-40
2022-08-03T18:52:01.926Z,-40
2022-08-03T18:53:01.945Z,-40
2022-08-03T18:54:01.897Z,-40
2022-08-03T18:55:01.892Z,-40
2022-08-03T18:56:01.896Z,-40
2022-08-03T18:57:01.884Z,-40
2022-08-03T18:58:01.910Z,-40
2022-08-03T18:59:01.882Z,-40
2022-08-03T19:00:01.844Z,-40
2022-08-03T19:01:01.840Z,-40
2022-08-03T19:02:01.835Z,-40
2022-08-03T19:03:01.807Z,-40
2022-08-03T19:04:01.793Z,-40
2022-08-03T19:05:01.782Z,-40
2022-08-03T19:06:01.873Z,-40
2022-08-03T19:07:01.775Z,-40
2022-08-03T19:08:01.774Z,-40
2022-08-03T19:09:01.754Z,-40
2022-08-03T19:10:01.734Z,-40
2022-08-03T19:11:01.725Z,-40
2022-08-03T19:12:01.716Z,-40
2022-08-03T19:13:01.703Z,-40
2022-08-03T19:14:01.738Z,-40
2022-08-03T19:15:01.706Z,-40
2022-08-03T19:16:01.671Z,-40
2022-08-03T19:17:01.657Z,-40
2022-08-03T19:18:01.682Z,-40
2022-08-03T19:19:01.638Z,-40
2022-08-03T19:20:01.645Z,-40
2022-08-03T19:21:01.633Z,-40
2022-08-03T19:22:01.635Z,-40
2022-08-03T19:23:01.598Z,-40
2022-08-03T19:24:01.588Z,-40
2022-08-03T19:25:01.578Z,-40
2022-08-03T19:26:01.570Z,-40
2022-08-03T19:27:01.572Z,-40
2022-08-03T19:28:01.550Z,-40
2022-08-03T19:29:01.535Z,-40
2022-08-03T19:30:01.526Z,-40
2022-08-03T19:31:01.515Z,-40
2022-08-03T19:32:01.504Z,-40
2022-08-03T19:33:01.520Z,-40
2022-08-03T19:34:01.481Z,-40
2022-08-03T19:35:01.472Z,-40
2022-08-03T19:36:01.457Z,-40
2022-08-03T19:37:01.445Z,-40
2022-08-03T19:38:01.451Z,-40
2022-08-03T19:39:01.430Z,-40
2022-08-03T19:40:01.433Z,-40
2022-08-03T19:41:01.421Z,-40
2022-08-03T19:42:01.398Z,-40
2022-08-03T19:43:01.380Z,-40
2022-08-03T19:44:01.382Z,-40
2022-08-03T19:45:01.374Z,-40
2022-08-03T19:46:01.377Z,-40
2022-08-03T19:47:01.340Z,-40
2022-08-03T19:48:01.362Z,-40
2022-08-03T19:49:01.317Z,-40
2022-08-03T19:50:01.320Z,-40
2022-08-03T19:51:01.295Z,-40
2022-08-03T19:52:01.289Z,-40
2022-08-03T19:53:01.276Z,-40
2022-08-03T19:54:01.264Z,-40
2022-08-03T19:55:01.283Z,-40
2022-08-03T19:56:01.245Z,-40
2022-08-03T19:57:01.238Z,-40
2022-08-03T19:58:01.221Z,-40
2022-08-03T19:59:01.213Z,-40
2022-08-03T20:00:01.209Z,-40
2022-08-03T20:01:01.209Z,-40
2022-08-03T20:02:01.176Z,-40
2022-08-03T20:03:01.169Z,-40
2022-08-03T20:04:01.160Z,-40
2022-08-03T20:05:01.156Z,-40
2022-08-03T20:06:01.137Z,-40
2022-08-03T20:07:01.158Z,-40
2022-08-03T20:08:01.174Z,-40
2022-08-03T20:09:01.107Z,-40
2022-08-03T20:10:01.097Z,-40
2022-08-03T20:11:01.159Z,-40
2022-08-03T20:12:01.074Z,-40
2022-08-03T20:13:01.078Z,-40
2022-08-03T20:14:01.079Z,-40
2022-08-03T20:15:01.044Z,-40
2022-08-03T20:16:01.033Z,-40
2022-08-03T20:17:01.016Z,-40
2022-08-03T20:18:01.017Z,-40
2022-08-03T20:19:01.016Z,-40
2022-08-03T20:20:00.991Z,-40
2022-08-03T20:21:00.980Z,-40
2022-08-03T20:22:00.969Z,-40
2022-08-03T20:23:00.957Z,-40
2022-08-03T20:24:00.966Z,-40
2022-08-03T20:25:00.936Z,-40
2022-08-03T20:26:00.940Z,-40
2022-08-03T20:27:00.928Z,-40
2022-08-03T20:28:00.907Z,-40
2022-08-03T20:29:00.898Z,-40
2022-08-03T20:30:00.897Z,-40
2022-08-03T20:31:00.892Z,-40
2022-08-03T20:32:00.872Z,-40
2022-08-03T20:33:00.889Z,-40
2022-08-03T20:34:00.856Z,-40
2022-08-03T20:35:00.836Z,-40
2022-08-03T20:36:00.837Z,-40
2022-08-03T20:37:00.819Z,-40
2022-08-03T20:38:00.819Z,-40
2022-08-03T20:39:00.804Z,-40
2022-08-03T20:40:00.793Z,-40
2022-08-03T20:41:00.787Z,-40
2022-08-03T20:42:00.800Z,-40
2022-08-03T20:43:01.224Z,-40
2022-08-03T20:44:00.742Z,-40
2022-08-03T20:45:00.734Z,-40
2022-08-03T20:46:00.747Z,-40
2022-08-03T20:47:00.723Z,-40
2022-08-03T20:48:00.718Z,-40
2022-08-03T20:49:00.717Z,-40
2022-08-03T20:50:00.681Z,-40
2022-08-03T20:51:00.676Z,-40
2022-08-03T20:52:00.687Z,-40
2022-08-03T20:53:00.649Z,-40
2022-08-03T20:54:00.657Z,-40
2022-08-03T20:55:00.635Z,-40
2022-08-03T20:56:00.630Z,-40
2022-08-03T20:57:00.611Z,-40
2022-08-03T20:58:00.600Z,-40
2022-08-03T20:59:00.599Z,-40
2022-08-03T21:00:00.589Z,-40
2022-08-03T21:01:00.565Z,-40
2022-08-03T21:02:00.580Z,-40
2022-08-03T21:03:00.589Z,-40
2022-08-03T21:04:00.554Z,-40
2022-08-03T21:05:00.546Z,-40
2022-08-03T21:06:00.554Z,-40
2022-08-03T21:07:00.522Z,-40
2022-08-03T21:08:00.521Z,-40
2022-08-03T21:09:00.522Z,-40
2022-08-03T21:10:00.491Z,-40
2022-08-03T21:11:00.483Z,-40
2022-08-03T21:12:00.486Z,-40
2022-08-03T21:14:00.462Z,-40
2022-08-03T21:15:00.456Z,-40
2022-08-03T21:16:00.431Z,-40
2022-08-03T21:17:00.421Z,-40
2022-08-03T21:18:00.417Z,-40
2022-08-03T21:19:00.402Z,-40
2022-08-03T21:20:00.386Z,-40
2022-08-03T21:21:00.389Z,-40
2022-08-03T21:22:00.367Z,-40
2022-08-03T21:23:00.372Z,-40
2022-08-03T21:24:00.375Z,-40
2022-08-03T21:25:00.338Z,-40
2022-08-03T21:26:00.345Z,-40
2022-08-03T21:27:00.362Z,-40
2022-08-03T21:28:00.305Z,-40
2022-08-03T21:29:00.299Z,-40
2022-08-03T21:30:00.316Z,-40
2022-08-03T21:31:00.274Z,-40
2022-08-03T21:32:00.258Z,-40
2022-08-03T21:33:00.250Z,-40
2022-08-03T21:34:00.240Z,-40
2022-08-03T21:35:00.234Z,-40
2022-08-03T21:36:00.223Z,-40
2022-08-03T21:37:00.212Z,-40
2022-08-03T21:38:00.196Z,-40
2022-08-03T21:39:00.198Z,-40
2022-08-03T21:40:00.173Z,-40
2022-08-03T21:41:00.167Z,-40
2022-08-03T21:42:00.149Z,-40
2022-08-03T21:43:00.200Z,-40
2022-08-03T21:44:00.127Z,-40
2022-08-03T21:45:00.129Z,-40
2022-08-03T21:46:00.120Z,-40
2022-08-03T21:47:00.181Z,-40
2022-08-03T21:48:00.087Z,-40
2022-08-03T21:49:00.079Z,-40
2022-08-03T21:50:00.064Z,-40
2022-08-03T21:51:00.051Z,-40
2022-08-03T21:52:00.047Z,-40
2022-08-03T21:53:00.037Z,-40
2022-08-03T21:54:00.059Z,-40
2022-08-03T21:55:00.008Z,-40
2022-08-03T21:56:00.004Z,-40
2022-08-03T21:56:59.990Z,-40
2022-08-03T21:57:59.989Z,-40
2022-08-03T21:58:59.970Z,-40
2022-08-03T21:59:59.963Z,-40
2022-08-03T22:00:59.968Z,-40
2022-08-03T22:01:59.938Z,-40
2022-08-03T22:02:59.929Z,-40
2022-08-03T22:03:59.922Z,-40
2022-08-03T22:04:59.903Z,-40
2022-08-03T22:05:59.892Z,-40
2022-08-03T22:06:59.883Z,-40
2022-08-03T22:07:59.878Z,-40
2022-08-03T22:08:59.874Z,-40
2022-08-03T22:09:59.852Z,-40
2022-08-03T22:10:59.858Z,-40
2022-08-03T22:11:59.836Z,-40
2022-08-03T22:12:59.817Z,-40
2022-08-03T22:13:59.805Z,-40
2022-08-03T22:14:59.807Z,-40
2022-08-03T22:15:59.772Z,-40
2022-08-03T22:16:59.766Z,-40
2022-08-03T22:17:59.754Z,-40
2022-08-03T22:18:59.745Z,-40
2022-08-03T22:19:59.735Z,-40
2022-08-03T22:20:59.784Z,-40
2022-08-03T22:21:59.701Z,-40
2022-08-03T22:24:19.793Z,30.02
2022-08-03T22:25:19.789Z,30.37
2022-08-03T22:26:19.797Z,30.43
2022-08-03T22:27:19.809Z,30.56
2022-08-03T22:28:19.794Z,30.45
2022-08-03T22:29:19.730Z,30.4
2022-08-03T22:30:20.614Z,30.43
2022-08-03T22:31:19.777Z,-40
2022-08-03T22:32:19.700Z,-40
2022-08-03T22:33:19.762Z,-40
2022-08-03T22:34:19.762Z,-40
2022-08-03T22:35:19.666Z,-40
2022-08-03T22:36:19.662Z,-40
2022-08-03T22:37:19.644Z,-40
2022-08-03T22:38:19.634Z,-40
2022-08-03T22:39:27.202Z,-40
2022-08-03T22:40:19.610Z,-40
2022-08-03T22:41:19.601Z,-40
2022-08-03T22:42:19.589Z,-40
2022-08-03T22:43:19.578Z,-40
2022-08-03T22:44:19.572Z,-40
2022-08-03T22:45:19.569Z,-40
2022-08-03T22:46:19.557Z,-40
2022-08-03T22:47:19.542Z,-40
2022-08-03T22:48:19.533Z,-40
2022-08-03T22:49:19.520Z,-40
2022-08-03T22:50:19.512Z,-40
2022-08-03T22:51:19.496Z,-40
2022-08-03T22:52:19.486Z,-40
2022-08-03T22:53:19.474Z,-40
2022-08-03T22:54:19.464Z,-40
2022-08-03T22:55:19.461Z,-40
2022-08-03T22:56:19.443Z,-40
2022-08-03T22:57:19.437Z,-40
2022-08-03T22:58:19.436Z,-40
2022-08-03T22:59:19.416Z,-40
2022-08-03T23:00:19.409Z,-40
2022-08-03T23:01:19.390Z,-40
2022-08-03T23:02:19.387Z,-40
2022-08-03T23:03:19.365Z,-40
2022-08-03T23:04:19.357Z,-40
2022-08-03T23:05:19.358Z,-40
2022-08-03T23:06:19.335Z,-40
2022-08-03T23:07:19.323Z,-40
2022-08-03T23:08:19.315Z,-40
2022-08-03T23:09:19.318Z,-40
2022-08-03T23:10:19.293Z,-40
2022-08-03T23:11:19.284Z,-40
2022-08-03T23:12:19.275Z,-40
2022-08-03T23:13:19.265Z,-40
2022-08-03T23:14:19.256Z,-40
2022-08-03T23:15:19.256Z,-40
2022-08-03T23:16:19.236Z,-40
2022-08-03T23:17:19.225Z,-40
2022-08-03T23:18:19.207Z,-40
2022-08-03T23:19:19.200Z,-40
2022-08-03T23:20:19.207Z,-40
2022-08-03T23:21:19.180Z,-40
2022-08-03T23:22:19.171Z,-40
2022-08-03T23:23:19.168Z,-40
2022-08-03T23:24:19.148Z,-40
2022-08-03T23:25:19.135Z,-40
2022-08-03T23:26:19.125Z,-40
2022-08-03T23:27:19.120Z,-40
2022-08-03T23:28:19.114Z,-40
2022-08-03T23:29:19.091Z,-40
2022-08-03T23:30:19.084Z,-40
2022-08-03T23:31:19.071Z,-40
2022-08-03T23:32:19.079Z,-40
2022-08-03T23:33:19.076Z,-40
2022-08-03T23:34:19.041Z,-40
2022-08-03T23:35:19.028Z,-40
2022-08-03T23:36:19.039Z,-40
2022-08-03T23:37:19.021Z,-40
2022-08-03T23:38:19.040Z,-40
2022-08-03T23:39:18.997Z,-40
2022-08-03T23:40:18.971Z,-40
2022-08-03T23:41:18.965Z,-40
2022-08-03T23:42:18.965Z,-40
2022-08-03T23:43:18.950Z,-40
2022-08-03T23:44:18.934Z,-40
2022-08-03T23:45:18.926Z,-40
2022-08-03T23:46:18.926Z,-40
2022-08-03T23:47:18.903Z,-40
2022-08-03T23:48:18.889Z,-40
2022-08-03T23:49:18.877Z,-40
2022-08-03T23:50:18.870Z,-40
2022-08-03T23:51:18.866Z,-40
2022-08-03T23:52:18.853Z,-40
2022-08-03T23:53:18.839Z,-40
2022-08-03T23:54:18.822Z,-40
2022-08-03T23:55:18.830Z,-40
2022-08-03T23:56:18.813Z,-40
2022-08-03T23:57:18.796Z,-40
2022-08-03T23:58:18.791Z,-40
2022-08-03T23:59:18.774Z,-40
